sensor_id;sensor_type;location;lat;lon;timestamp;temperature;humidity
16863;DHT22;52193;48.216;-1.698;2023-12-07T00:01:58;10.20;99.90
16863;DHT22;52193;48.216;-1.698;2023-12-07T00:04:25;10.20;99.90
16863;DHT22;52193;48.216;-1.698;2023-12-07T00:06:52;10.20;99.90
16863;DHT22;52193;48.216;-1.698;2023-12-07T00:09:20;10.20;99.90
16863;DHT22;52193;48.216;-1.698;2023-12-07T00:11:46;10.20;99.90
16863;DHT22;52193;48.216;-1.698;2023-12-07T00:14:13;10.20;99.90
16863;DHT22;52193;48.216;-1.698;2023-12-07T00:16:40;10.20;99.90
16863;DHT22;52193;48.216;-1.698;2023-12-07T00:19:08;10.20;99.90
16863;DHT22;52193;48.216;-1.698;2023-12-07T00:21:35;10.20;99.90
16863;DHT22;52193;48.216;-1.698;2023-12-07T00:24:02;10.20;99.90
16863;DHT22;52193;48.216;-1.698;2023-12-07T00:26:30;10.20;99.90
16863;DHT22;52193;48.216;-1.698;2023-12-07T00:28:57;10.20;99.90
16863;DHT22;52193;48.216;-1.698;2023-12-07T00:31:24;10.20;99.90
16863;DHT22;52193;48.216;-1.698;2023-12-07T00:33:51;10.20;99.90
16863;DHT22;52193;48.216;-1.698;2023-12-07T00:36:18;10.20;99.90
16863;DHT22;52193;48.216;-1.698;2023-12-07T00:38:45;10.20;99.90
16863;DHT22;52193;48.216;-1.698;2023-12-07T00:41:12;10.20;99.90
16863;DHT22;52193;48.216;-1.698;2023-12-07T00:43:40;10.20;99.90
16863;DHT22;52193;48.216;-1.698;2023-12-07T00:46:08;10.20;99.90
16863;DHT22;52193;48.216;-1.698;2023-12-07T00:48:34;10.20;99.90
16863;DHT22;52193;48.216;-1.698;2023-12-07T00:51:01;10.20;99.90
16863;DHT22;52193;48.216;-1.698;2023-12-07T00:53:28;10.20;99.90
16863;DHT22;52193;48.216;-1.698;2023-12-07T00:55:55;10.20;99.90
16863;DHT22;52193;48.216;-1.698;2023-12-07T00:58:22;10.20;99.90
16863;DHT22;52193;48.216;-1.698;2023-12-07T01:00:51;10.20;99.90
16863;DHT22;52193;48.216;-1.698;2023-12-07T01:03:18;10.20;99.90
16863;DHT22;52193;48.216;-1.698;2023-12-07T01:05:45;10.20;99.90
16863;DHT22;52193;48.216;-1.698;2023-12-07T01:08:12;10.20;99.90
16863;DHT22;52193;48.216;-1.698;2023-12-07T01:10:39;10.20;99.90
16863;DHT22;52193;48.216;-1.698;2023-12-07T01:13:05;10.20;99.90
16863;DHT22;52193;48.216;-1.698;2023-12-07T01:15:32;10.20;99.90
16863;DHT22;52193;48.216;-1.698;2023-12-07T01:18:00;10.20;99.90
16863;DHT22;52193;48.216;-1.698;2023-12-07T01:20:27;10.20;99.90
16863;DHT22;52193;48.216;-1.698;2023-12-07T01:22:54;10.30;99.90
16863;DHT22;52193;48.216;-1.698;2023-12-07T01:25:21;10.30;99.90
16863;DHT22;52193;48.216;-1.698;2023-12-07T01:27:48;10.30;99.90
16863;DHT22;52193;48.216;-1.698;2023-12-07T01:30:15;10.30;99.90
16863;DHT22;52193;48.216;-1.698;2023-12-07T01:32:42;10.30;99.90
16863;DHT22;52193;48.216;-1.698;2023-12-07T01:35:10;10.30;99.90
16863;DHT22;52193;48.216;-1.698;2023-12-07T01:37:38;10.30;99.90
16863;DHT22;52193;48.216;-1.698;2023-12-07T01:40:06;10.30;99.90
16863;DHT22;52193;48.216;-1.698;2023-12-07T01:42:36;10.30;99.90
16863;DHT22;52193;48.216;-1.698;2023-12-07T01:45:04;10.30;99.90
16863;DHT22;52193;48.216;-1.698;2023-12-07T01:47:31;10.30;99.90
16863;DHT22;52193;48.216;-1.698;2023-12-07T01:49:58;10.30;99.90
16863;DHT22;52193;48.216;-1.698;2023-12-07T01:52:29;10.30;99.90
16863;DHT22;52193;48.216;-1.698;2023-12-07T01:54:56;10.30;99.90
16863;DHT22;52193;48.216;-1.698;2023-12-07T01:57:24;10.30;99.90
16863;DHT22;52193;48.216;-1.698;2023-12-07T01:59:51;10.30;99.90
16863;DHT22;52193;48.216;-1.698;2023-12-07T02:02:18;10.30;99.90
16863;DHT22;52193;48.216;-1.698;2023-12-07T02:04:45;10.30;99.90
16863;DHT22;52193;48.216;-1.698;2023-12-07T02:07:12;10.30;99.90
16863;DHT22;52193;48.216;-1.698;2023-12-07T02:09:40;10.30;99.90
16863;DHT22;52193;48.216;-1.698;2023-12-07T02:12:07;10.30;99.90
16863;DHT22;52193;48.216;-1.698;2023-12-07T02:14:35;10.30;99.90
16863;DHT22;52193;48.216;-1.698;2023-12-07T02:17:08;10.30;99.90
16863;DHT22;52193;48.216;-1.698;2023-12-07T02:19:51;10.30;99.90
16863;DHT22;52193;48.216;-1.698;2023-12-07T02:22:26;10.40;99.90
16863;DHT22;52193;48.216;-1.698;2023-12-07T02:25:04;10.30;99.90
16863;DHT22;52193;48.216;-1.698;2023-12-07T02:27:38;10.30;99.90
16863;DHT22;52193;48.216;-1.698;2023-12-07T02:30:06;10.40;99.90
16863;DHT22;52193;48.216;-1.698;2023-12-07T02:32:33;10.30;99.90
16863;DHT22;52193;48.216;-1.698;2023-12-07T02:35:00;10.40;99.90
16863;DHT22;52193;48.216;-1.698;2023-12-07T02:37:28;10.40;99.90
16863;DHT22;52193;48.216;-1.698;2023-12-07T02:39:59;10.40;99.90
16863;DHT22;52193;48.216;-1.698;2023-12-07T02:42:29;10.40;99.90
16863;DHT22;52193;48.216;-1.698;2023-12-07T02:44:59;10.40;99.90
16863;DHT22;52193;48.216;-1.698;2023-12-07T02:47:27;10.40;99.90
16863;DHT22;52193;48.216;-1.698;2023-12-07T02:49:54;10.40;99.90
16863;DHT22;52193;48.216;-1.698;2023-12-07T02:52:21;10.40;99.90
16863;DHT22;52193;48.216;-1.698;2023-12-07T02:54:47;10.40;99.90
16863;DHT22;52193;48.216;-1.698;2023-12-07T02:57:14;10.40;99.90
16863;DHT22;52193;48.216;-1.698;2023-12-07T02:59:41;10.40;99.90
16863;DHT22;52193;48.216;-1.698;2023-12-07T03:02:09;10.40;99.90
16863;DHT22;52193;48.216;-1.698;2023-12-07T03:04:36;10.40;99.90
16863;DHT22;52193;48.216;-1.698;2023-12-07T03:07:04;10.40;99.90
16863;DHT22;52193;48.216;-1.698;2023-12-07T03:09:31;10.40;99.90
16863;DHT22;52193;48.216;-1.698;2023-12-07T03:11:58;10.40;99.90
16863;DHT22;52193;48.216;-1.698;2023-12-07T03:14:25;10.40;99.90
16863;DHT22;52193;48.216;-1.698;2023-12-07T03:16:51;10.40;99.90
16863;DHT22;52193;48.216;-1.698;2023-12-07T03:19:20;10.40;99.90
16863;DHT22;52193;48.216;-1.698;2023-12-07T03:21:46;10.40;99.90
16863;DHT22;52193;48.216;-1.698;2023-12-07T03:24:13;10.40;99.90
16863;DHT22;52193;48.216;-1.698;2023-12-07T03:26:40;10.40;99.90
16863;DHT22;52193;48.216;-1.698;2023-12-07T03:29:07;10.40;99.90
16863;DHT22;52193;48.216;-1.698;2023-12-07T03:31:34;10.40;99.90
16863;DHT22;52193;48.216;-1.698;2023-12-07T03:34:01;10.40;99.90
16863;DHT22;52193;48.216;-1.698;2023-12-07T03:36:30;10.50;99.90
16863;DHT22;52193;48.216;-1.698;2023-12-07T03:38:57;10.50;99.90
16863;DHT22;52193;48.216;-1.698;2023-12-07T03:41:24;10.50;99.90
16863;DHT22;52193;48.216;-1.698;2023-12-07T03:43:50;10.40;99.90
16863;DHT22;52193;48.216;-1.698;2023-12-07T03:46:17;10.40;99.90
16863;DHT22;52193;48.216;-1.698;2023-12-07T03:48:44;10.40;99.90
16863;DHT22;52193;48.216;-1.698;2023-12-07T03:51:13;10.40;99.90
16863;DHT22;52193;48.216;-1.698;2023-12-07T03:53:43;10.50;99.90
16863;DHT22;52193;48.216;-1.698;2023-12-07T03:56:10;10.50;99.90
16863;DHT22;52193;48.216;-1.698;2023-12-07T03:58:37;10.50;99.90
16863;DHT22;52193;48.216;-1.698;2023-12-07T04:01:03;10.50;99.90
16863;DHT22;52193;48.216;-1.698;2023-12-07T04:03:30;10.50;99.90
16863;DHT22;52193;48.216;-1.698;2023-12-07T04:05:57;10.50;99.90
16863;DHT22;52193;48.216;-1.698;2023-12-07T04:08:24;10.50;99.90
16863;DHT22;52193;48.216;-1.698;2023-12-07T04:10:52;10.50;99.90
16863;DHT22;52193;48.216;-1.698;2023-12-07T04:13:19;10.50;99.90
16863;DHT22;52193;48.216;-1.698;2023-12-07T04:15:46;10.50;99.90
16863;DHT22;52193;48.216;-1.698;2023-12-07T04:18:13;10.50;99.90
16863;DHT22;52193;48.216;-1.698;2023-12-07T04:20:39;10.50;99.90
16863;DHT22;52193;48.216;-1.698;2023-12-07T04:23:06;10.50;99.90
16863;DHT22;52193;48.216;-1.698;2023-12-07T04:25:33;10.50;99.90
16863;DHT22;52193;48.216;-1.698;2023-12-07T04:28:02;10.50;99.90
16863;DHT22;52193;48.216;-1.698;2023-12-07T04:30:28;10.50;99.90
16863;DHT22;52193;48.216;-1.698;2023-12-07T04:32:55;10.50;99.90
16863;DHT22;52193;48.216;-1.698;2023-12-07T04:35:22;10.50;99.90
16863;DHT22;52193;48.216;-1.698;2023-12-07T04:37:49;10.50;99.90
16863;DHT22;52193;48.216;-1.698;2023-12-07T04:40:16;10.50;99.90
16863;DHT22;52193;48.216;-1.698;2023-12-07T04:42:42;10.50;99.90
16863;DHT22;52193;48.216;-1.698;2023-12-07T04:45:11;10.40;99.90
16863;DHT22;52193;48.216;-1.698;2023-12-07T04:47:38;10.40;99.90
16863;DHT22;52193;48.216;-1.698;2023-12-07T04:50:05;10.50;99.90
16863;DHT22;52193;48.216;-1.698;2023-12-07T04:52:32;10.40;99.90
16863;DHT22;52193;48.216;-1.698;2023-12-07T04:54:59;10.40;99.90
16863;DHT22;52193;48.216;-1.698;2023-12-07T04:57:26;10.40;99.90
16863;DHT22;52193;48.216;-1.698;2023-12-07T04:59:53;10.40;99.90
16863;DHT22;52193;48.216;-1.698;2023-12-07T05:02:21;10.40;99.90
16863;DHT22;52193;48.216;-1.698;2023-12-07T05:04:48;10.40;99.90
16863;DHT22;52193;48.216;-1.698;2023-12-07T05:07:15;10.40;99.90
16863;DHT22;52193;48.216;-1.698;2023-12-07T05:09:42;10.40;99.90
16863;DHT22;52193;48.216;-1.698;2023-12-07T05:12:09;10.40;99.90
16863;DHT22;52193;48.216;-1.698;2023-12-07T05:14:36;10.40;99.90
16863;DHT22;52193;48.216;-1.698;2023-12-07T05:17:04;10.30;99.90
16863;DHT22;52193;48.216;-1.698;2023-12-07T05:19:32;10.30;99.90
16863;DHT22;52193;48.216;-1.698;2023-12-07T05:21:59;10.30;99.90
16863;DHT22;52193;48.216;-1.698;2023-12-07T05:24:26;10.30;99.90
16863;DHT22;52193;48.216;-1.698;2023-12-07T05:26:53;10.30;99.90
16863;DHT22;52193;48.216;-1.698;2023-12-07T05:29:19;10.30;99.90
16863;DHT22;52193;48.216;-1.698;2023-12-07T05:31:48;10.20;99.90
16863;DHT22;52193;48.216;-1.698;2023-12-07T05:34:16;10.20;99.90
16863;DHT22;52193;48.216;-1.698;2023-12-07T05:36:44;10.20;99.90
16863;DHT22;52193;48.216;-1.698;2023-12-07T05:39:11;10.20;99.90
16863;DHT22;52193;48.216;-1.698;2023-12-07T05:41:38;10.20;99.90
16863;DHT22;52193;48.216;-1.698;2023-12-07T05:44:05;10.20;99.90
16863;DHT22;52193;48.216;-1.698;2023-12-07T05:46:32;10.20;99.90
16863;DHT22;52193;48.216;-1.698;2023-12-07T05:49:01;10.20;99.90
16863;DHT22;52193;48.216;-1.698;2023-12-07T05:51:28;10.20;99.90
16863;DHT22;52193;48.216;-1.698;2023-12-07T05:53:57;10.20;99.90
16863;DHT22;52193;48.216;-1.698;2023-12-07T05:56:24;10.20;99.90
16863;DHT22;52193;48.216;-1.698;2023-12-07T05:58:51;10.20;99.90
16863;DHT22;52193;48.216;-1.698;2023-12-07T06:01:18;10.20;99.90
16863;DHT22;52193;48.216;-1.698;2023-12-07T06:03:46;10.20;99.90
16863;DHT22;52193;48.216;-1.698;2023-12-07T06:06:13;10.20;99.90
16863;DHT22;52193;48.216;-1.698;2023-12-07T06:08:40;10.20;99.90
16863;DHT22;52193;48.216;-1.698;2023-12-07T06:11:08;10.20;99.90
16863;DHT22;52193;48.216;-1.698;2023-12-07T06:13:35;10.20;99.90
16863;DHT22;52193;48.216;-1.698;2023-12-07T06:16:02;10.20;99.90
16863;DHT22;52193;48.216;-1.698;2023-12-07T06:18:29;10.20;99.90
16863;DHT22;52193;48.216;-1.698;2023-12-07T06:20:56;10.20;99.90
16863;DHT22;52193;48.216;-1.698;2023-12-07T06:23:23;10.20;99.90
16863;DHT22;52193;48.216;-1.698;2023-12-07T06:25:50;10.20;99.90
16863;DHT22;52193;48.216;-1.698;2023-12-07T06:28:18;10.20;99.90
16863;DHT22;52193;48.216;-1.698;2023-12-07T06:30:45;10.20;99.90
16863;DHT22;52193;48.216;-1.698;2023-12-07T06:33:12;10.20;99.90
16863;DHT22;52193;48.216;-1.698;2023-12-07T06:35:38;10.20;99.90
16863;DHT22;52193;48.216;-1.698;2023-12-07T06:38:05;10.20;99.90
16863;DHT22;52193;48.216;-1.698;2023-12-07T06:40:32;10.20;99.90
16863;DHT22;52193;48.216;-1.698;2023-12-07T06:42:59;10.20;99.90
16863;DHT22;52193;48.216;-1.698;2023-12-07T06:45:27;10.20;99.90
16863;DHT22;52193;48.216;-1.698;2023-12-07T06:47:54;10.20;99.90
16863;DHT22;52193;48.216;-1.698;2023-12-07T06:50:21;10.20;99.90
16863;DHT22;52193;48.216;-1.698;2023-12-07T06:52:48;10.20;99.90
16863;DHT22;52193;48.216;-1.698;2023-12-07T06:55:15;10.20;99.90
16863;DHT22;52193;48.216;-1.698;2023-12-07T06:57:42;10.20;99.90
16863;DHT22;52193;48.216;-1.698;2023-12-07T07:00:09;10.20;99.90
16863;DHT22;52193;48.216;-1.698;2023-12-07T07:02:37;10.10;99.90
16863;DHT22;52193;48.216;-1.698;2023-12-07T07:05:05;10.10;99.90
16863;DHT22;52193;48.216;-1.698;2023-12-07T07:07:32;10.10;99.90
16863;DHT22;52193;48.216;-1.698;2023-12-07T07:09:59;10.10;99.90
16863;DHT22;52193;48.216;-1.698;2023-12-07T07:12:26;10.10;99.90
16863;DHT22;52193;48.216;-1.698;2023-12-07T07:14:53;10.10;99.90
16863;DHT22;52193;48.216;-1.698;2023-12-07T07:17:20;10.10;99.90
16863;DHT22;52193;48.216;-1.698;2023-12-07T07:19:48;10.10;99.90
16863;DHT22;52193;48.216;-1.698;2023-12-07T07:22:14;10.10;99.90
16863;DHT22;52193;48.216;-1.698;2023-12-07T07:24:41;10.10;99.90
16863;DHT22;52193;48.216;-1.698;2023-12-07T07:27:08;10.10;99.90
16863;DHT22;52193;48.216;-1.698;2023-12-07T07:29:35;10.10;99.90
16863;DHT22;52193;48.216;-1.698;2023-12-07T07:32:02;10.10;99.90
16863;DHT22;52193;48.216;-1.698;2023-12-07T07:34:29;10.10;99.90
16863;DHT22;52193;48.216;-1.698;2023-12-07T07:36:57;10.10;99.90
16863;DHT22;52193;48.216;-1.698;2023-12-07T07:39:24;10.10;99.90
16863;DHT22;52193;48.216;-1.698;2023-12-07T07:41:51;10.10;99.90
16863;DHT22;52193;48.216;-1.698;2023-12-07T07:44:17;10.00;99.90
16863;DHT22;52193;48.216;-1.698;2023-12-07T07:46:44;10.00;99.90
16863;DHT22;52193;48.216;-1.698;2023-12-07T07:49:11;10.00;99.90
16863;DHT22;52193;48.216;-1.698;2023-12-07T07:51:38;10.00;99.90
16863;DHT22;52193;48.216;-1.698;2023-12-07T07:54:06;10.00;99.90
16863;DHT22;52193;48.216;-1.698;2023-12-07T07:56:33;10.00;99.90
16863;DHT22;52193;48.216;-1.698;2023-12-07T07:59:01;10.00;99.90
16863;DHT22;52193;48.216;-1.698;2023-12-07T08:01:28;10.00;99.90
16863;DHT22;52193;48.216;-1.698;2023-12-07T08:03:54;10.00;99.90
16863;DHT22;52193;48.216;-1.698;2023-12-07T08:06:21;10.00;99.90
16863;DHT22;52193;48.216;-1.698;2023-12-07T08:08:48;10.00;99.90
16863;DHT22;52193;48.216;-1.698;2023-12-07T08:11:17;10.00;99.90
16863;DHT22;52193;48.216;-1.698;2023-12-07T08:13:45;10.00;99.90
16863;DHT22;52193;48.216;-1.698;2023-12-07T08:16:11;10.00;99.90
16863;DHT22;52193;48.216;-1.698;2023-12-07T08:18:38;10.00;99.90
16863;DHT22;52193;48.216;-1.698;2023-12-07T08:21:05;10.00;99.90
16863;DHT22;52193;48.216;-1.698;2023-12-07T08:23:34;10.00;99.90
16863;DHT22;52193;48.216;-1.698;2023-12-07T08:26:08;10.00;99.90
16863;DHT22;52193;48.216;-1.698;2023-12-07T08:28:37;10.00;99.90
16863;DHT22;52193;48.216;-1.698;2023-12-07T08:31:04;10.00;99.90
16863;DHT22;52193;48.216;-1.698;2023-12-07T08:33:30;10.00;99.90
16863;DHT22;52193;48.216;-1.698;2023-12-07T08:35:59;10.00;99.90
16863;DHT22;52193;48.216;-1.698;2023-12-07T08:38:26;9.90;99.90
16863;DHT22;52193;48.216;-1.698;2023-12-07T08:40:53;9.90;99.90
16863;DHT22;52193;48.216;-1.698;2023-12-07T08:43:22;10.00;99.90
16863;DHT22;52193;48.216;-1.698;2023-12-07T08:45:50;10.00;99.90
16863;DHT22;52193;48.216;-1.698;2023-12-07T08:48:19;10.00;99.90
16863;DHT22;52193;48.216;-1.698;2023-12-07T08:50:46;10.00;99.90
16863;DHT22;52193;48.216;-1.698;2023-12-07T08:53:12;10.00;99.90
16863;DHT22;52193;48.216;-1.698;2023-12-07T08:55:40;10.00;99.90
16863;DHT22;52193;48.216;-1.698;2023-12-07T08:58:06;10.00;99.90
16863;DHT22;52193;48.216;-1.698;2023-12-07T09:00:33;10.00;99.90
16863;DHT22;52193;48.216;-1.698;2023-12-07T09:03:02;10.00;99.90
16863;DHT22;52193;48.216;-1.698;2023-12-07T09:05:28;10.00;99.90
16863;DHT22;52193;48.216;-1.698;2023-12-07T09:07:55;10.00;99.90
16863;DHT22;52193;48.216;-1.698;2023-12-07T09:10:23;10.00;99.90
16863;DHT22;52193;48.216;-1.698;2023-12-07T09:12:49;10.00;99.90
16863;DHT22;52193;48.216;-1.698;2023-12-07T09:15:16;10.00;99.90
16863;DHT22;52193;48.216;-1.698;2023-12-07T09:17:43;10.00;99.90
16863;DHT22;52193;48.216;-1.698;2023-12-07T09:20:11;10.00;99.90
16863;DHT22;52193;48.216;-1.698;2023-12-07T09:22:41;10.00;99.90
16863;DHT22;52193;48.216;-1.698;2023-12-07T09:25:09;10.00;99.90
16863;DHT22;52193;48.216;-1.698;2023-12-07T09:27:36;9.90;99.90
16863;DHT22;52193;48.216;-1.698;2023-12-07T09:30:05;9.90;99.90
16863;DHT22;52193;48.216;-1.698;2023-12-07T09:32:32;10.00;99.90
16863;DHT22;52193;48.216;-1.698;2023-12-07T09:35:04;9.90;99.90
16863;DHT22;52193;48.216;-1.698;2023-12-07T09:37:33;9.90;99.90
16863;DHT22;52193;48.216;-1.698;2023-12-07T09:40:00;9.90;99.90
16863;DHT22;52193;48.216;-1.698;2023-12-07T09:42:29;9.90;99.90
16863;DHT22;52193;48.216;-1.698;2023-12-07T09:44:56;10.00;99.90
16863;DHT22;52193;48.216;-1.698;2023-12-07T09:47:24;10.00;99.90
16863;DHT22;52193;48.216;-1.698;2023-12-07T09:49:52;10.00;99.90
16863;DHT22;52193;48.216;-1.698;2023-12-07T09:52:20;10.00;99.90
16863;DHT22;52193;48.216;-1.698;2023-12-07T09:54:50;10.00;99.90
16863;DHT22;52193;48.216;-1.698;2023-12-07T09:57:18;10.00;99.90
16863;DHT22;52193;48.216;-1.698;2023-12-07T09:59:45;10.00;99.90
16863;DHT22;52193;48.216;-1.698;2023-12-07T10:02:13;10.00;99.90
16863;DHT22;52193;48.216;-1.698;2023-12-07T10:04:40;10.00;99.90
16863;DHT22;52193;48.216;-1.698;2023-12-07T10:07:06;10.00;99.90
16863;DHT22;52193;48.216;-1.698;2023-12-07T10:09:34;10.00;99.90
16863;DHT22;52193;48.216;-1.698;2023-12-07T10:12:06;9.90;99.90
16863;DHT22;52193;48.216;-1.698;2023-12-07T10:14:33;9.90;99.90
16863;DHT22;52193;48.216;-1.698;2023-12-07T10:17:01;9.90;99.90
16863;DHT22;52193;48.216;-1.698;2023-12-07T10:19:28;9.90;99.90
16863;DHT22;52193;48.216;-1.698;2023-12-07T10:21:55;9.90;99.90
16863;DHT22;52193;48.216;-1.698;2023-12-07T10:24:22;10.00;99.90
16863;DHT22;52193;48.216;-1.698;2023-12-07T10:26:52;10.00;99.90
16863;DHT22;52193;48.216;-1.698;2023-12-07T10:29:20;9.90;99.90
16863;DHT22;52193;48.216;-1.698;2023-12-07T10:31:48;9.90;99.90
16863;DHT22;52193;48.216;-1.698;2023-12-07T10:34:18;9.90;99.90
16863;DHT22;52193;48.216;-1.698;2023-12-07T10:36:46;9.90;99.90
16863;DHT22;52193;48.216;-1.698;2023-12-07T10:39:13;10.00;99.90
16863;DHT22;52193;48.216;-1.698;2023-12-07T10:41:43;9.90;99.90
16863;DHT22;52193;48.216;-1.698;2023-12-07T10:44:13;9.90;99.90
16863;DHT22;52193;48.216;-1.698;2023-12-07T10:46:43;9.90;99.90
16863;DHT22;52193;48.216;-1.698;2023-12-07T10:49:15;9.90;99.90
16863;DHT22;52193;48.216;-1.698;2023-12-07T10:51:48;9.90;99.90
16863;DHT22;52193;48.216;-1.698;2023-12-07T10:54:21;9.90;99.90
16863;DHT22;52193;48.216;-1.698;2023-12-07T10:56:49;9.90;99.90
16863;DHT22;52193;48.216;-1.698;2023-12-07T10:59:16;9.90;99.90
16863;DHT22;52193;48.216;-1.698;2023-12-07T11:01:45;9.90;99.90
16863;DHT22;52193;48.216;-1.698;2023-12-07T11:04:13;9.90;99.90
16863;DHT22;52193;48.216;-1.698;2023-12-07T11:06:42;9.90;99.90
16863;DHT22;52193;48.216;-1.698;2023-12-07T11:09:15;9.90;99.90
16863;DHT22;52193;48.216;-1.698;2023-12-07T11:11:47;10.00;99.90
16863;DHT22;52193;48.216;-1.698;2023-12-07T11:14:16;10.00;99.90
16863;DHT22;52193;48.216;-1.698;2023-12-07T11:16:46;10.00;99.90
16863;DHT22;52193;48.216;-1.698;2023-12-07T11:19:44;10.00;99.90
16863;DHT22;52193;48.216;-1.698;2023-12-07T11:22:13;10.00;99.90
16863;DHT22;52193;48.216;-1.698;2023-12-07T11:24:53;10.00;99.90
16863;DHT22;52193;48.216;-1.698;2023-12-07T11:27:21;10.10;99.90
16863;DHT22;52193;48.216;-1.698;2023-12-07T11:29:48;10.00;99.90
16863;DHT22;52193;48.216;-1.698;2023-12-07T11:32:16;10.00;99.90
16863;DHT22;52193;48.216;-1.698;2023-12-07T11:34:43;10.10;99.90
16863;DHT22;52193;48.216;-1.698;2023-12-07T11:37:13;10.10;99.90
16863;DHT22;52193;48.216;-1.698;2023-12-07T11:39:41;10.10;99.90
16863;DHT22;52193;48.216;-1.698;2023-12-07T11:42:11;10.10;99.90
16863;DHT22;52193;48.216;-1.698;2023-12-07T11:44:39;10.10;99.90
16863;DHT22;52193;48.216;-1.698;2023-12-07T11:47:07;10.20;99.90
16863;DHT22;52193;48.216;-1.698;2023-12-07T11:49:36;10.20;99.90
16863;DHT22;52193;48.216;-1.698;2023-12-07T11:52:13;10.20;99.90
16863;DHT22;52193;48.216;-1.698;2023-12-07T11:54:43;10.20;99.90
16863;DHT22;52193;48.216;-1.698;2023-12-07T11:57:10;10.30;99.90
16863;DHT22;52193;48.216;-1.698;2023-12-07T11:59:37;10.30;99.90
16863;DHT22;52193;48.216;-1.698;2023-12-07T12:02:04;10.30;99.90
16863;DHT22;52193;48.216;-1.698;2023-12-07T12:04:31;10.30;99.90
16863;DHT22;52193;48.216;-1.698;2023-12-07T12:06:59;10.30;99.90
16863;DHT22;52193;48.216;-1.698;2023-12-07T12:09:26;10.30;99.90
16863;DHT22;52193;48.216;-1.698;2023-12-07T12:11:53;10.40;99.90
16863;DHT22;52193;48.216;-1.698;2023-12-07T12:14:19;10.40;99.90
16863;DHT22;52193;48.216;-1.698;2023-12-07T12:16:47;10.40;99.90
16863;DHT22;52193;48.216;-1.698;2023-12-07T12:19:14;10.40;99.90
16863;DHT22;52193;48.216;-1.698;2023-12-07T12:21:41;10.40;99.90
16863;DHT22;52193;48.216;-1.698;2023-12-07T12:24:11;10.40;99.90
16863;DHT22;52193;48.216;-1.698;2023-12-07T12:26:40;10.50;99.90
16863;DHT22;52193;48.216;-1.698;2023-12-07T12:29:07;10.50;99.90
16863;DHT22;52193;48.216;-1.698;2023-12-07T12:31:34;10.50;99.90
16863;DHT22;52193;48.216;-1.698;2023-12-07T12:34:01;10.50;99.90
16863;DHT22;52193;48.216;-1.698;2023-12-07T12:36:28;10.50;99.90
16863;DHT22;52193;48.216;-1.698;2023-12-07T12:38:56;10.50;99.90
16863;DHT22;52193;48.216;-1.698;2023-12-07T12:41:24;10.50;99.90
16863;DHT22;52193;48.216;-1.698;2023-12-07T12:43:51;10.60;99.90
16863;DHT22;52193;48.216;-1.698;2023-12-07T12:46:18;10.60;99.90
16863;DHT22;52193;48.216;-1.698;2023-12-07T12:48:55;10.60;99.90
16863;DHT22;52193;48.216;-1.698;2023-12-07T12:51:24;10.60;99.90
16863;DHT22;52193;48.216;-1.698;2023-12-07T12:53:53;10.60;99.90
16863;DHT22;52193;48.216;-1.698;2023-12-07T12:56:22;10.60;99.90
16863;DHT22;52193;48.216;-1.698;2023-12-07T12:58:50;10.60;99.90
16863;DHT22;52193;48.216;-1.698;2023-12-07T13:01:18;10.60;99.90
16863;DHT22;52193;48.216;-1.698;2023-12-07T13:03:46;10.60;99.90
16863;DHT22;52193;48.216;-1.698;2023-12-07T13:06:13;10.60;99.90
16863;DHT22;52193;48.216;-1.698;2023-12-07T13:08:40;10.60;99.90
16863;DHT22;52193;48.216;-1.698;2023-12-07T13:11:07;10.60;99.90
16863;DHT22;52193;48.216;-1.698;2023-12-07T13:13:34;10.60;99.90
16863;DHT22;52193;48.216;-1.698;2023-12-07T13:16:03;10.60;99.90
16863;DHT22;52193;48.216;-1.698;2023-12-07T13:18:30;10.60;99.90
16863;DHT22;52193;48.216;-1.698;2023-12-07T13:20:57;10.60;99.90
16863;DHT22;52193;48.216;-1.698;2023-12-07T13:23:25;10.60;99.90
16863;DHT22;52193;48.216;-1.698;2023-12-07T13:25:52;10.60;99.90
16863;DHT22;52193;48.216;-1.698;2023-12-07T13:28:19;10.60;99.90
16863;DHT22;52193;48.216;-1.698;2023-12-07T13:30:48;10.60;99.90
16863;DHT22;52193;48.216;-1.698;2023-12-07T13:33:16;10.60;99.90
16863;DHT22;52193;48.216;-1.698;2023-12-07T13:35:43;10.60;99.90
16863;DHT22;52193;48.216;-1.698;2023-12-07T13:38:09;10.50;99.90
16863;DHT22;52193;48.216;-1.698;2023-12-07T13:40:36;10.50;99.90
16863;DHT22;52193;48.216;-1.698;2023-12-07T13:43:04;10.50;99.90
16863;DHT22;52193;48.216;-1.698;2023-12-07T13:45:32;10.50;99.90
16863;DHT22;52193;48.216;-1.698;2023-12-07T13:47:59;10.50;99.90
16863;DHT22;52193;48.216;-1.698;2023-12-07T13:50:27;10.50;99.90
16863;DHT22;52193;48.216;-1.698;2023-12-07T13:52:54;10.50;99.90
16863;DHT22;52193;48.216;-1.698;2023-12-07T13:55:21;10.50;99.90
16863;DHT22;52193;48.216;-1.698;2023-12-07T13:57:49;10.50;99.90
16863;DHT22;52193;48.216;-1.698;2023-12-07T14:00:18;10.50;99.90
16863;DHT22;52193;48.216;-1.698;2023-12-07T14:02:45;10.50;99.90
16863;DHT22;52193;48.216;-1.698;2023-12-07T14:05:12;10.50;99.90
16863;DHT22;52193;48.216;-1.698;2023-12-07T14:07:40;10.50;99.90
16863;DHT22;52193;48.216;-1.698;2023-12-07T14:10:08;10.50;99.90
16863;DHT22;52193;48.216;-1.698;2023-12-07T14:12:34;10.50;99.90
16863;DHT22;52193;48.216;-1.698;2023-12-07T14:15:01;10.50;99.90
16863;DHT22;52193;48.216;-1.698;2023-12-07T14:17:28;10.50;99.90
16863;DHT22;52193;48.216;-1.698;2023-12-07T14:20:01;10.50;99.90
16863;DHT22;52193;48.216;-1.698;2023-12-07T14:22:29;10.50;99.90
16863;DHT22;52193;48.216;-1.698;2023-12-07T14:24:57;10.40;99.90
16863;DHT22;52193;48.216;-1.698;2023-12-07T14:27:24;10.40;99.90
16863;DHT22;52193;48.216;-1.698;2023-12-07T14:29:51;10.40;99.90
16863;DHT22;52193;48.216;-1.698;2023-12-07T14:32:18;10.50;99.90
16863;DHT22;52193;48.216;-1.698;2023-12-07T14:34:45;10.40;99.90
16863;DHT22;52193;48.216;-1.698;2023-12-07T14:37:12;10.40;99.90
16863;DHT22;52193;48.216;-1.698;2023-12-07T14:39:39;10.40;99.90
16863;DHT22;52193;48.216;-1.698;2023-12-07T14:42:07;10.40;99.90
16863;DHT22;52193;48.216;-1.698;2023-12-07T14:44:34;10.40;99.90
16863;DHT22;52193;48.216;-1.698;2023-12-07T14:47:01;10.40;99.90
16863;DHT22;52193;48.216;-1.698;2023-12-07T14:49:28;10.40;99.90
16863;DHT22;52193;48.216;-1.698;2023-12-07T14:51:55;10.40;99.90
16863;DHT22;52193;48.216;-1.698;2023-12-07T14:54:24;10.30;99.90
16863;DHT22;52193;48.216;-1.698;2023-12-07T14:56:51;10.30;99.90
16863;DHT22;52193;48.216;-1.698;2023-12-07T14:59:19;10.30;99.90
16863;DHT22;52193;48.216;-1.698;2023-12-07T15:01:46;10.30;99.90
16863;DHT22;52193;48.216;-1.698;2023-12-07T15:04:15;10.30;99.90
16863;DHT22;52193;48.216;-1.698;2023-12-07T15:06:42;10.30;99.90
16863;DHT22;52193;48.216;-1.698;2023-12-07T15:09:09;10.30;99.90
16863;DHT22;52193;48.216;-1.698;2023-12-07T15:11:36;10.40;99.90
16863;DHT22;52193;48.216;-1.698;2023-12-07T15:14:03;10.40;99.90
16863;DHT22;52193;48.216;-1.698;2023-12-07T15:16:31;10.40;99.90
16863;DHT22;52193;48.216;-1.698;2023-12-07T15:18:58;10.40;99.90
16863;DHT22;52193;48.216;-1.698;2023-12-07T15:21:25;10.40;99.90